createdAt,value
2023-11-24T00:00:39.313Z,1.98
2023-11-24T00:03:42.560Z,1.80
2023-11-24T00:06:44.391Z,2.03
2023-11-24T00:09:46.124Z,2.00
2023-11-24T00:12:47.888Z,2.17
2023-11-24T00:15:49.917Z,1.90
2023-11-24T00:18:53.148Z,2.00
2023-11-24T00:21:54.857Z,1.95
2023-11-24T00:24:58.772Z,1.85
2023-11-24T00:28:00.739Z,2.10
2023-11-24T00:31:06.635Z,1.48
2023-11-24T00:34:09.915Z,1.70
2023-11-24T00:37:12.030Z,1.65
2023-11-24T00:40:15.468Z,1.88
2023-11-24T00:43:17.368Z,1.92
2023-11-24T00:46:19.799Z,1.65
2023-11-24T00:49:22.826Z,2.05
2023-11-24T00:52:27.165Z,2.05
2023-11-24T00:55:31.131Z,1.73
2023-11-24T00:58:32.747Z,1.92
2023-11-24T01:01:34.874Z,1.98
2023-11-24T01:04:38.023Z,1.70
2023-11-24T01:07:41.196Z,1.48
2023-11-24T01:10:42.923Z,1.58
2023-11-24T01:13:44.708Z,1.35
2023-11-24T01:16:46.483Z,0.88
2023-11-24T01:19:49.588Z,0.70
2023-11-24T01:22:51.735Z,0.68
2023-11-24T01:25:54.604Z,0.70
2023-11-24T01:28:56.265Z,0.93
2023-11-24T01:31:57.937Z,0.70
2023-11-24T01:35:00.933Z,0.80
2023-11-24T01:38:02.572Z,1.17
2023-11-24T01:41:04.673Z,0.98
2023-11-24T01:44:06.619Z,0.93
2023-11-24T01:47:08.240Z,1.17
2023-11-24T01:50:11.953Z,1.08
2023-11-24T01:53:15.145Z,0.90
2023-11-24T01:56:16.890Z,0.50
2023-11-24T01:59:18.683Z,0.65
2023-11-24T02:02:23.709Z,0.93
2023-11-24T02:08:29.254Z,0.88
2023-11-24T02:11:30.991Z,1.10
2023-11-24T02:14:33.106Z,0.98
2023-11-24T02:17:34.809Z,1.00
2023-11-24T02:20:38.776Z,1.30
2023-11-24T02:23:43.513Z,1.20
2023-11-24T02:26:45.655Z,1.05
2023-11-24T02:29:48.654Z,1.10
2023-11-24T02:32:50.454Z,0.93
2023-11-24T02:35:52.285Z,1.00
2023-11-24T02:38:55.399Z,1.13
2023-11-24T02:41:57.202Z,0.80
2023-11-24T02:44:58.853Z,0.82
2023-11-24T02:48:00.730Z,1.00
2023-11-24T02:51:05.253Z,0.77
2023-11-24T02:54:08.830Z,0.38
2023-11-24T02:57:10.725Z,0.70
2023-11-24T03:00:14.170Z,0.75
2023-11-24T03:03:15.969Z,0.57
2023-11-24T03:06:19.224Z,0.50
2023-11-24T03:09:24.224Z,0.20
2023-11-24T03:15:27.613Z,0.60
2023-11-24T03:18:29.326Z,0.50
2023-11-24T03:21:32.464Z,0.60
2023-11-24T03:24:36.388Z,0.40
2023-11-24T03:27:38.096Z,0.17
2023-11-24T03:30:39.858Z,0.80
2023-11-24T03:33:41.573Z,0.28
2023-11-24T03:36:43.412Z,0.40
2023-11-24T03:39:46.441Z,0.50
2023-11-24T03:42:48.183Z,0.45
2023-11-24T03:45:50.245Z,0.55
2023-11-24T03:48:51.993Z,0.50
2023-11-24T03:51:54.697Z,0.40
2023-11-24T03:54:58.518Z,0.45
2023-11-24T03:58:00.404Z,0.43
2023-11-24T04:01:02.602Z,0.25
2023-11-24T04:04:04.822Z,0.50
2023-11-24T04:07:06.632Z,1.00
2023-11-24T04:10:10.396Z,0.93
2023-11-24T04:13:12.141Z,1.35
2023-11-24T04:16:15.677Z,0.95
2023-11-24T04:19:17.431Z,0.45
2023-11-24T04:22:19.110Z,0.65
2023-11-24T04:25:22.263Z,0.68
2023-11-24T04:28:24.049Z,0.43
2023-11-24T04:31:25.815Z,1.02
2023-11-24T04:34:27.906Z,0.60
2023-11-24T04:37:29.819Z,1.02
2023-11-24T04:40:32.947Z,1.15
2023-11-24T04:43:34.591Z,0.65
2023-11-24T04:46:36.526Z,1.00
2023-11-24T04:49:38.190Z,0.90
2023-11-24T04:52:39.903Z,1.05
2023-11-24T04:55:43.081Z,1.00
2023-11-24T04:58:44.755Z,0.57
2023-11-24T05:01:47.323Z,0.38
2023-11-24T05:04:49.144Z,0.77
2023-11-24T05:07:50.843Z,0.98
2023-11-24T05:10:54.469Z,1.17
2023-11-24T05:13:56.959Z,1.42
2023-11-24T05:16:58.828Z,0.50
2023-11-24T05:20:00.619Z,0.73
2023-11-24T05:23:02.561Z,0.50
2023-11-24T05:26:05.943Z,0.98
2023-11-24T05:29:07.622Z,0.52
2023-11-24T05:32:09.246Z,0.50
2023-11-24T05:35:11.275Z,0.65
2023-11-24T05:38:12.926Z,0.93
2023-11-24T05:41:16.150Z,1.27
2023-11-24T05:44:19.435Z,1.05
2023-11-24T05:47:21.424Z,1.00
2023-11-24T05:50:23.868Z,0.80
2023-11-24T05:53:26.537Z,1.42
2023-11-24T05:56:30.030Z,1.60
2023-11-24T05:59:31.926Z,1.38
2023-11-24T06:02:34.836Z,1.60
2023-11-24T06:05:36.561Z,2.22
2023-11-24T06:08:38.285Z,2.65
2023-11-24T06:11:41.410Z,2.22
2023-11-24T06:14:43.366Z,1.10
2023-11-24T06:17:45.179Z,2.88
2023-11-24T06:20:46.834Z,1.58
2023-11-24T06:23:52.048Z,1.73
2023-11-24T06:29:56.723Z,0.95
2023-11-24T06:32:58.403Z,1.08
2023-11-24T06:36:01.578Z,0.98
2023-11-24T06:39:03.974Z,1.27
2023-11-24T06:42:07.314Z,0.80
2023-11-24T06:45:10.620Z,0.68
2023-11-24T06:48:12.564Z,1.13
2023-11-24T06:51:14.299Z,0.50
2023-11-24T06:54:16.625Z,0.77
2023-11-24T06:57:19.776Z,1.25
2023-11-24T07:00:22.113Z,0.90
2023-11-24T07:03:23.882Z,1.00
2023-11-24T07:06:26.096Z,1.10
2023-11-24T07:09:27.823Z,1.23
2023-11-24T07:12:30.886Z,1.15
2023-11-24T07:15:32.596Z,1.00
2023-11-24T07:18:34.435Z,0.75
2023-11-24T07:21:36.404Z,0.77
2023-11-24T07:24:39.582Z,0.57
2023-11-24T07:27:43.517Z,0.65
2023-11-24T07:30:47.003Z,0.50
2023-11-24T07:33:50.337Z,0.98
2023-11-24T07:36:54.572Z,0.50
2023-11-24T07:39:56.581Z,0.40
2023-11-24T07:42:59.695Z,0.50
2023-11-24T07:46:01.628Z,0.82
2023-11-24T07:49:04.603Z,0.60
2023-11-24T07:52:06.574Z,1.20
2023-11-24T07:55:08.775Z,0.40
2023-11-24T07:58:12.291Z,0.93
2023-11-24T08:01:14.886Z,0.55
2023-11-24T08:04:16.945Z,1.00
2023-11-24T08:07:19.697Z,0.85
2023-11-24T08:10:22.239Z,0.85
2023-11-24T08:13:25.376Z,1.20
2023-11-24T08:16:27.586Z,0.98
2023-11-24T08:19:29.543Z,1.10
2023-11-24T08:22:32.135Z,1.38
2023-11-24T08:25:36.074Z,0.82
2023-11-24T08:28:39.043Z,1.05
2023-11-24T08:31:41.701Z,1.00
2023-11-24T08:34:43.867Z,1.02
2023-11-24T08:37:45.710Z,1.08
2023-11-24T08:40:47.389Z,1.13
2023-11-24T08:43:50.518Z,1.35
2023-11-24T08:46:53.217Z,1.73
2023-11-24T08:49:56.815Z,1.10
2023-11-24T08:52:59.777Z,1.05
2023-11-24T08:56:01.644Z,0.95
2023-11-24T08:59:06.614Z,0.90
2023-11-24T09:02:09.325Z,0.90
2023-11-24T09:05:11.621Z,1.63
2023-11-24T09:08:13.349Z,1.38
2023-11-24T09:11:15.320Z,0.90
2023-11-24T09:14:18.403Z,0.70
2023-11-24T09:17:21.565Z,0.73
2023-11-24T09:20:23.318Z,0.60
2023-11-24T09:23:25.029Z,0.77
2023-11-24T09:26:26.716Z,0.85
2023-11-24T09:29:29.967Z,0.63
2023-11-24T09:32:34.635Z,1.20
2023-11-24T09:35:36.335Z,0.80
2023-11-24T09:38:38.030Z,0.90
2023-11-24T09:41:43.489Z,0.98
2023-11-24T09:44:48.682Z,0.80
2023-11-24T09:47:52.698Z,0.40
2023-11-24T09:50:55.369Z,0.70
2023-11-24T09:53:57.308Z,0.43
2023-11-24T09:56:59.114Z,0.30
2023-11-24T10:00:02.301Z,0.60
2023-11-24T10:03:08.493Z,0.65
2023-11-24T10:06:10.348Z,0.40
2023-11-24T10:09:13.378Z,0.93
2023-11-24T10:12:16.997Z,0.55
2023-11-24T10:15:21.533Z,0.47
2023-11-24T10:18:26.756Z,0.47
2023-11-24T10:21:33.088Z,0.17
2023-11-24T10:24:38.520Z,0.20
2023-11-24T10:27:43.396Z,0.30
2023-11-24T10:30:47.237Z,0.47
2023-11-24T10:35:54.214Z,0.50
2023-11-24T10:39:01.887Z,0.13
2023-11-24T10:42:09.572Z,0.52
2023-11-24T10:45:12.651Z,0.40
2023-11-24T10:48:37.595Z,0.35
2023-11-24T10:53:07.924Z,0.32
2023-11-24T10:56:10.512Z,0.20
2023-11-24T11:03:26.296Z,0.30
2023-11-24T11:08:45.184Z,0.40
2023-11-24T11:12:32.008Z,0.40
2023-11-24T11:15:33.997Z,0.63
2023-11-24T11:18:37.068Z,0.15
2023-11-24T11:21:40.916Z,0.50
2023-11-24T11:24:44.931Z,0.15
2023-11-24T11:27:48.159Z,0.40
2023-11-24T11:30:51.257Z,0.30
2023-11-24T11:33:54.891Z,0.50
2023-11-24T11:37:08.990Z,0.35
2023-11-24T11:40:20.772Z,0.25
2023-11-24T11:43:23.062Z,0.28
2023-11-24T11:46:25.234Z,0.40
2023-11-24T11:49:27.256Z,0.20
2023-11-24T11:52:29.531Z,0.30
2023-11-24T11:55:34.031Z,0.38
2023-11-24T11:58:36.197Z,0.28
2023-11-24T12:01:38.340Z,0.35
2023-11-24T12:04:40.252Z,0.45
2023-11-24T12:07:44.459Z,0.32
2023-11-24T12:10:47.958Z,0.38
2023-11-24T12:13:51.988Z,0.20
2023-11-24T12:16:54.811Z,0.40
2023-11-24T12:19:57.279Z,0.40
2023-11-24T12:23:01.175Z,0.47
2023-11-24T12:26:04.619Z,0.17
2023-11-24T12:29:11.753Z,0.50
2023-11-24T12:32:13.748Z,0.40
2023-11-24T12:37:14.363Z,0.35
2023-11-24T12:40:17.296Z,0.40
2023-11-24T12:43:21.156Z,0.25
2023-11-24T12:46:23.006Z,0.13
2023-11-24T12:49:24.842Z,0.20
2023-11-24T12:54:12.296Z,0.30
2023-11-24T12:57:14.056Z,0.20
2023-11-24T13:00:17.672Z,0.20
2023-11-24T13:03:19.813Z,0.20
2023-11-24T13:06:21.622Z,0.10
2023-11-24T13:09:29.243Z,0.45
2023-11-24T13:12:32.107Z,0.40
2023-11-24T13:15:34.056Z,0.13
2023-11-24T13:18:39.073Z,0.38
2023-11-24T13:21:40.832Z,0.22
2023-11-24T13:24:44.132Z,0.00
2023-11-24T13:27:46.171Z,0.20
2023-11-24T13:30:51.563Z,0.10
2023-11-24T13:33:53.310Z,0.03
2023-11-24T13:36:59.039Z,0.00
2023-11-24T13:40:02.772Z,0.50
2023-11-24T13:43:04.636Z,0.45
2023-11-24T13:46:08.025Z,0.20
2023-11-24T13:49:13.755Z,0.20
2023-11-24T13:52:17.592Z,0.43
2023-11-24T13:55:20.730Z,0.40
2023-11-24T13:58:23.850Z,0.43
2023-11-24T14:01:28.417Z,0.10
2023-11-24T14:04:34.765Z,0.22
2023-11-24T14:07:36.740Z,0.15
2023-11-24T14:10:39.842Z,0.10
2023-11-24T14:13:41.707Z,0.40
2023-11-24T14:16:45.031Z,0.13
2023-11-24T14:19:46.870Z,0.40
2023-11-24T14:23:07.330Z,0.17
2023-11-24T14:26:10.402Z,0.20
2023-11-24T14:29:51.947Z,0.38
2023-11-24T14:32:53.844Z,0.30
2023-11-24T14:35:56.137Z,0.32
2023-11-24T14:38:58.424Z,0.38
2023-11-24T14:42:00.679Z,0.60
2023-11-24T14:45:05.730Z,0.40
2023-11-24T14:48:09.895Z,1.30
2023-11-24T14:51:14.832Z,0.55
2023-11-24T14:54:17.343Z,0.30
2023-11-24T14:57:19.296Z,0.10
2023-11-24T15:00:31.586Z,0.30
2023-11-24T15:03:39.763Z,0.30
2023-11-24T15:06:41.629Z,0.30
2023-11-24T15:09:46.351Z,0.28
2023-11-24T15:12:49.086Z,0.20
2023-11-24T15:15:53.537Z,0.17
2023-11-24T15:18:55.719Z,0.50
2023-11-24T15:22:04.029Z,0.25
2023-11-24T15:25:07.763Z,0.38
2023-11-24T15:28:13.551Z,0.38
2023-11-24T15:31:16.900Z,0.25
2023-11-24T15:34:19.061Z,0.20
2023-11-24T15:37:21.199Z,0.25
2023-11-24T15:40:22.877Z,0.20
2023-11-24T15:43:25.153Z,0.15
2023-11-24T15:46:34.283Z,0.30
2023-11-24T15:49:37.131Z,0.28
2023-11-24T15:52:40.112Z,0.30
2023-11-24T15:55:45.665Z,0.20
2023-11-24T15:58:52.410Z,0.20
2023-11-24T16:01:58.516Z,0.20
2023-11-24T16:05:02.429Z,0.30
2023-11-24T16:08:08.806Z,0.60
2023-11-24T16:11:11.628Z,0.70
2023-11-24T16:14:14.104Z,0.65
2023-11-24T16:17:17.244Z,1.00
2023-11-24T16:20:19.095Z,0.85
2023-11-24T16:23:21.582Z,0.55
2023-11-24T16:26:24.626Z,0.40
2023-11-24T16:29:26.424Z,0.50
2023-11-24T16:32:29.637Z,0.40
2023-11-24T16:35:31.364Z,0.52
2023-11-24T16:38:36.037Z,0.60
2023-11-24T16:41:38.230Z,0.80
2023-11-24T16:44:40.039Z,0.40
2023-11-24T16:47:43.849Z,0.52
2023-11-24T16:50:47.056Z,0.75
2023-11-24T16:53:48.858Z,0.82
2023-11-24T16:56:50.748Z,0.93
2023-11-24T16:59:52.622Z,0.73
2023-11-24T17:02:56.025Z,1.10
2023-11-24T17:05:58.120Z,0.63
2023-11-24T17:08:59.881Z,0.50
2023-11-24T17:12:01.648Z,0.50
2023-11-24T17:15:03.904Z,0.38
2023-11-24T17:18:11.608Z,0.77
2023-11-24T17:21:13.505Z,0.60
2023-11-24T17:24:15.339Z,0.90
2023-11-24T17:27:17.009Z,0.93
2023-11-24T17:30:19.354Z,0.50
2023-11-24T17:33:22.432Z,0.70
2023-11-24T17:36:25.009Z,0.60
2023-11-24T17:39:28.240Z,0.47
2023-11-24T17:42:29.955Z,0.50
2023-11-24T17:45:31.757Z,1.00
2023-11-24T17:48:35.742Z,0.40
2023-11-24T17:51:38.636Z,1.05
2023-11-24T17:54:40.268Z,2.40
2023-11-24T17:57:42.589Z,0.70
2023-11-24T18:00:44.604Z,0.52
2023-11-24T18:03:49.258Z,0.45
2023-11-24T18:06:52.694Z,0.55
2023-11-24T18:09:54.491Z,0.70
2023-11-24T18:12:57.740Z,0.60
2023-11-24T18:15:59.700Z,0.40
2023-11-24T18:19:03.053Z,0.60
2023-11-24T18:22:05.094Z,0.52
2023-11-24T18:25:08.833Z,0.70
2023-11-24T18:28:12.554Z,0.95
2023-11-24T18:31:14.804Z,0.93
2023-11-24T18:34:17.952Z,0.73
2023-11-24T18:37:19.934Z,0.43
2023-11-24T18:40:23.051Z,0.38
2023-11-24T18:43:33.734Z,0.65
2023-11-24T18:46:41.328Z,0.57
2023-11-24T18:49:44.727Z,0.45
2023-11-24T18:52:46.570Z,0.80
2023-11-24T18:55:48.239Z,0.75
2023-11-24T18:58:50.120Z,0.70
2023-11-24T19:01:52.102Z,0.38
2023-11-24T19:04:55.706Z,0.43
2023-11-24T19:11:27.084Z,0.17
2023-11-24T19:14:29.592Z,0.08
2023-11-24T19:17:31.624Z,0.10
2023-11-24T19:20:33.547Z,0.20
2023-11-24T19:23:35.420Z,0.20
2023-11-24T19:28:36.167Z,0.40
2023-11-24T19:31:38.393Z,0.38
2023-11-24T19:34:41.385Z,0.68
2023-11-24T19:37:43.431Z,0.60
2023-11-24T19:40:48.425Z,0.50
2023-11-24T19:43:52.044Z,0.70
2023-11-24T19:46:54.919Z,1.48
2023-11-24T19:49:56.948Z,0.52
2023-11-24T19:52:59.548Z,0.85
2023-11-24T19:56:01.659Z,0.20
2023-11-24T19:59:04.927Z,0.17
2023-11-24T20:02:07.237Z,0.47
2023-11-24T20:05:09.527Z,0.30
2023-11-24T20:08:11.436Z,0.32
2023-11-24T20:11:13.689Z,0.13
2023-11-24T20:14:18.477Z,0.55
2023-11-24T20:17:20.385Z,5.30
2023-11-24T20:20:22.805Z,0.98
2023-11-24T20:23:24.611Z,0.90
2023-11-24T20:26:27.340Z,0.85
2023-11-24T20:29:30.476Z,0.50
2023-11-24T20:32:33.218Z,0.85
2023-11-24T20:35:35.124Z,0.98
2023-11-24T20:38:37.032Z,0.60
2023-11-24T20:41:40.033Z,0.55
2023-11-24T20:44:43.595Z,0.65
2023-11-24T20:47:45.464Z,0.88
2023-11-24T20:50:47.372Z,0.63
2023-11-24T20:53:49.238Z,0.60
2023-11-24T20:56:51.072Z,0.82
2023-11-24T20:59:54.159Z,1.05
2023-11-24T21:02:55.961Z,1.42
2023-11-24T21:05:57.648Z,1.00
2023-11-24T21:09:00.644Z,1.30
2023-11-24T21:12:02.612Z,0.60
2023-11-24T21:15:07.339Z,0.60
2023-11-24T21:18:09.380Z,1.20
2023-11-24T21:21:13.276Z,0.50
2023-11-24T21:24:15.984Z,0.88
2023-11-24T21:27:18.991Z,0.25
2023-11-24T21:30:25.644Z,0.43
2023-11-24T21:33:27.495Z,0.50
2023-11-24T21:36:29.402Z,0.10
2023-11-24T21:39:31.377Z,0.30
2023-11-24T21:42:33.448Z,0.50
2023-11-24T21:45:36.825Z,0.28
2023-11-24T21:48:38.721Z,0.30
2023-11-24T21:51:43.182Z,0.40
2023-11-24T21:54:46.172Z,0.40
2023-11-24T21:57:50.340Z,0.20
2023-11-24T22:00:53.536Z,0.30
2023-11-24T22:03:56.779Z,0.35
2023-11-24T22:06:58.908Z,0.20
2023-11-24T22:10:02.211Z,0.50
2023-11-24T22:13:05.806Z,0.60
2023-11-24T22:16:10.373Z,0.40
2023-11-24T22:19:12.364Z,0.38
2023-11-24T22:22:14.093Z,0.32
2023-11-24T22:25:16.131Z,0.30
2023-11-24T22:28:17.882Z,0.13
2023-11-24T22:31:21.421Z,0.20
2023-11-24T22:34:23.374Z,0.45
2023-11-24T22:37:25.744Z,0.20
2023-11-24T22:40:27.903Z,0.22
2023-11-24T22:43:29.651Z,0.40
2023-11-24T22:46:33.814Z,0.50
2023-11-24T22:49:35.976Z,1.15
2023-11-24T22:52:37.973Z,0.32
2023-11-24T22:55:40.938Z,0.88
2023-11-24T22:58:42.898Z,0.30
2023-11-24T23:01:46.351Z,0.90
2023-11-24T23:04:48.223Z,0.40
2023-11-24T23:07:50.023Z,0.30
2023-11-24T23:10:51.678Z,0.40
2023-11-24T23:13:53.597Z,0.20
2023-11-24T23:16:56.877Z,0.25
2023-11-24T23:19:58.628Z,0.77
2023-11-24T23:23:00.455Z,0.30
2023-11-24T23:26:02.548Z,0.10
2023-11-24T23:29:04.878Z,0.75
2023-11-24T23:32:08.487Z,0.43
2023-11-24T23:35:13.335Z,0.10
2023-11-24T23:38:16.060Z,0.50
2023-11-24T23:41:18.126Z,0.20
2023-11-24T23:44:20.019Z,0.17
2023-11-24T23:47:23.507Z,0.10
2023-11-24T23:50:30.835Z,0.38
2023-11-24T23:53:33.176Z,0.20
2023-11-24T23:56:34.926Z,0.32
2023-11-24T23:59:36.782Z,0.30
